Magdalena, NM (87825)

6:08 PM MDT on May 30, 2015 (GMT -0600)
LWA1 Site | | Change Station
CLOSE
Current Station
Personal Weather Station
Location: Magdalena, NM
Elevation: 6980 ft
Nearby Weather Stations

Elev 6980 ft 34.07 °N, 107.63 °W | Updated 1 second ago

Clear
Clear
73.1 °F
Feels Like 77 °F
N
6.0
Wind Variable Wind from East
Gusts 11.0 mph

Today
High -- | Low -- °F
--% Chance of Precip.
Yesterday
High -- | Low -- °F
Precip. -- in
5:59 AM 8:14 PM
Waxing Gibbous, 93% visible
Pressure 30.12 in
Visibility 10.0 miles
Clouds Clear
Heat Index 77 °F
Dew Point 42 °F
Humidity 33%
Rainfall 0.00 in
Snow Depth Not available.
UV 3 out of 12
Pollen 3.90 out of 12
Air Quality Not available.
Flu Activity Sporadic
METAR KONM 302355Z AUTO 00000KT 10SM CLR 28/02 A3012 RMK AO2 LTG DSNT W AND NW T02800018 10296 20228

More Conditions Fewer Conditions

Pressure 30.12 in
Visibility 10.0 miles
Clouds Clear
Heat Index 77 °F
Dew Point 42 °F
Humidity 33%
Rainfall 0.00 in
Snow Depth Not available.
UV 3 out of 12
Pollen 3.90 out of 12
Air Quality Not available.
Flu Activity Sporadic
METAR KONM 302355Z AUTO 00000KT 10SM CLR 28/02 A3012 RMK AO2 LTG DSNT W AND NW T02800018 10296 20228

More Conditions Fewer Conditions

Nowcast | as of 5:55 PM MDT on May 30, 2015

Isolated to scattered showers and thunderstorms will continue to move to the southeast over much of central and western New Mexico before sunset. The activity will be most numerous over Catron...Socorro and Lincoln counties...as well as Taos County. Some locations which may be impacted include Bernardo to Socorro...the very large array...and oscuro as well as San Cristobal. Expect brief moderate to heavy rain amounting to mainly less than one quarter of an inch. Occasional cloud to ground and wind gusts to 45 mph are also possible.

×

10-Day Weather Forecast

Almanac

Astronomy

May. 30, 2015 Rise Set
Actual Time
Civil Twilight
Nautical Twilight
Astronomical Twilight
Moon
Length of Visible Light
Length of Day
Tomorrow will be .
, % of the Moon is Illuminated

Today's Extremes

State Highs State Lows

Community

WunderPhotos

Upload Photos

1,825,558 photos uploaded!

WunderBlogs® & News

Nearby

Air Quality

  Air Quality AQ Index Pollutant
Not available.

Snow Depth

Station Depth Elevation

Earthquake Activity

City Distance Mag. Time & Date
Minimum magnitude displayed is 2.5.

Coastal Water Temperatures

Place Temperature

Stations

Nearby Weather Stations

Station Location Temp. Windchill Dew Point Humidity Wind Precip. Elev Updated Type